createdAt,value
2019-05-16T00:01:02.291Z,13.70
2019-05-16T00:02:08.218Z,13.70
2019-05-16T00:03:13.016Z,13.70
2019-05-16T00:04:17.868Z,13.60
2019-05-16T00:05:22.489Z,13.70
2019-05-16T00:06:28.476Z,13.70
2019-05-16T00:07:33.089Z,13.70
2019-05-16T00:08:38.793Z,13.70
2019-05-16T00:09:43.540Z,13.70
2019-05-16T00:10:48.718Z,13.70
2019-05-16T00:11:53.426Z,13.70
2019-05-16T00:12:59.636Z,13.60
2019-05-16T00:14:04.158Z,13.70
2019-05-16T00:15:09.281Z,13.70
2019-05-16T00:16:13.966Z,13.60
2019-05-16T00:17:18.857Z,13.60
2019-05-16T00:18:23.686Z,13.60
2019-05-16T00:19:28.744Z,13.60
2019-05-16T00:20:33.474Z,13.60
2019-05-16T00:21:38.292Z,13.60
2019-05-16T00:22:43.044Z,13.60
2019-05-16T00:23:48.577Z,13.60
2019-05-16T00:24:53.354Z,13.60
2019-05-16T00:25:58.626Z,13.50
2019-05-16T00:27:03.363Z,13.50
2019-05-16T00:28:08.932Z,13.50
2019-05-16T00:29:13.692Z,13.50
2019-05-16T00:30:18.449Z,13.50
2019-05-16T00:31:23.087Z,13.50
2019-05-16T00:32:28.161Z,13.50
2019-05-16T00:33:32.918Z,13.50
2019-05-16T00:34:38.510Z,13.50
2019-05-16T00:35:43.264Z,13.50
2019-05-16T00:36:48.823Z,13.50
2019-05-16T00:37:53.551Z,13.50
2019-05-16T00:39:01.101Z,13.50
2019-05-16T00:40:08.264Z,13.50
2019-05-16T00:41:12.752Z,13.50
2019-05-16T00:42:17.991Z,13.50
2019-05-16T00:43:22.526Z,13.50
2019-05-16T00:44:28.143Z,13.50
2019-05-16T00:45:32.531Z,13.50
2019-05-16T00:46:38.568Z,13.50
2019-05-16T00:47:43.263Z,13.50
2019-05-16T00:48:48.717Z,13.50
2019-05-16T00:49:53.370Z,13.50
2019-05-16T00:50:58.437Z,13.50
2019-05-16T00:52:03.034Z,13.50
2019-05-16T00:53:09.184Z,13.50
2019-05-16T00:54:13.757Z,13.50
2019-05-16T00:55:18.355Z,13.50
2019-05-16T00:56:22.747Z,13.50
2019-05-16T00:57:28.191Z,13.50
2019-05-16T00:58:32.643Z,13.50
2019-05-16T00:59:38.144Z,13.50
2019-05-16T01:00:49.869Z,13.50
2019-05-16T01:01:53.319Z,13.50
2019-05-16T01:02:57.893Z,13.50
2019-05-16T01:04:02.598Z,13.50
2019-05-16T01:05:08.519Z,13.50
2019-05-16T01:06:19.250Z,13.50
2019-05-16T01:07:19.435Z,13.50
2019-05-16T01:08:24.014Z,13.50
2019-05-16T01:09:31.411Z,13.40
2019-05-16T01:10:36.055Z,13.40
2019-05-16T01:11:40.453Z,13.40
2019-05-16T01:12:45.039Z,13.40
2019-05-16T01:13:49.439Z,13.40
2019-05-16T01:14:54.050Z,13.40
2019-05-16T01:15:58.458Z,13.40
2019-05-16T01:17:03.049Z,13.40
2019-05-16T01:18:08.079Z,13.40
2019-05-16T01:19:12.846Z,13.30
2019-05-16T01:20:19.310Z,13.30
2019-05-16T01:21:23.647Z,13.30
2019-05-16T01:22:29.000Z,13.30
2019-05-16T01:23:34.266Z,13.30
2019-05-16T01:24:41.401Z,13.30
2019-05-16T01:25:44.923Z,13.30
2019-05-16T01:26:49.398Z,13.30
2019-05-16T01:27:53.988Z,13.30
2019-05-16T01:28:58.389Z,13.30
2019-05-16T01:30:03.010Z,13.30
2019-05-16T01:31:08.786Z,13.30
2019-05-16T01:32:13.336Z,13.30
2019-05-16T01:33:19.149Z,13.20
2019-05-16T01:34:24.051Z,13.20
2019-05-16T01:35:28.479Z,13.20
2019-05-16T01:36:37.050Z,13.20
2019-05-16T01:37:39.128Z,13.20
2019-05-16T01:38:43.730Z,13.20
2019-05-16T01:39:48.479Z,13.20
2019-05-16T01:40:53.112Z,13.20
2019-05-16T01:41:58.659Z,13.20
2019-05-16T01:43:03.398Z,13.20
2019-05-16T01:44:07.967Z,13.20
2019-05-16T01:45:12.623Z,13.20
2019-05-16T01:46:18.032Z,13.20
2019-05-16T01:47:22.859Z,13.20
2019-05-16T01:48:29.290Z,13.20
2019-05-16T01:49:33.518Z,13.20
2019-05-16T01:50:38.783Z,13.20
2019-05-16T01:51:43.535Z,13.20
2019-05-16T01:52:48.697Z,13.20
2019-05-16T01:53:53.520Z,13.20
2019-05-16T01:54:58.734Z,13.20
2019-05-16T01:56:03.431Z,13.20
2019-05-16T01:57:08.193Z,13.20
2019-05-16T01:58:12.933Z,13.20
2019-05-16T01:59:18.132Z,13.20
2019-05-16T02:00:25.488Z,13.20
2019-05-16T02:01:29.011Z,13.20
2019-05-16T02:02:33.586Z,13.10
2019-05-16T02:03:38.743Z,13.20
2019-05-16T02:04:43.472Z,13.20
2019-05-16T02:05:48.155Z,13.20
2019-05-16T02:06:54.917Z,13.20
2019-05-16T02:07:58.938Z,13.20
2019-05-16T02:09:04.428Z,13.20
2019-05-16T02:10:09.124Z,13.20
2019-05-16T02:11:13.751Z,13.20
2019-05-16T02:12:18.584Z,13.20
2019-05-16T02:13:23.399Z,13.10
2019-05-16T02:14:28.378Z,13.10
2019-05-16T02:15:33.026Z,13.20
2019-05-16T02:16:38.476Z,13.10
2019-05-16T02:17:43.141Z,13.10
2019-05-16T02:18:48.851Z,13.10
2019-05-16T02:19:53.617Z,13.10
2019-05-16T02:21:00.953Z,13.10
2019-05-16T02:22:04.266Z,13.10
2019-05-16T02:23:08.671Z,13.10
2019-05-16T02:24:13.261Z,13.10
2019-05-16T02:25:18.516Z,13.10
2019-05-16T02:26:23.479Z,13.00
2019-05-16T02:27:28.737Z,13.00
2019-05-16T02:28:39.765Z,13.00
2019-05-16T02:29:40.097Z,13.00
2019-05-16T02:30:44.847Z,13.00
2019-05-16T02:31:51.422Z,13.00
2019-05-16T02:32:55.556Z,13.00
2019-05-16T02:34:01.260Z,12.90
2019-05-16T02:35:06.525Z,12.90
2019-05-16T02:36:11.167Z,12.90
2019-05-16T02:37:24.607Z,12.90
2019-05-16T02:38:21.882Z,12.90
2019-05-16T02:39:26.483Z,12.90
2019-05-16T02:40:31.458Z,12.80
2019-05-16T02:41:36.287Z,12.80
2019-05-16T02:42:42.031Z,12.80
2019-05-16T02:43:47.019Z,12.70
2019-05-16T02:44:51.419Z,12.70
2019-05-16T02:45:55.999Z,12.70
2019-05-16T02:47:01.483Z,12.60
2019-05-16T02:48:06.412Z,12.60
2019-05-16T02:49:11.543Z,12.60
2019-05-16T02:50:17.248Z,12.60
2019-05-16T02:51:21.739Z,12.60
2019-05-16T02:52:26.459Z,12.60
2019-05-16T02:53:31.173Z,12.60
2019-05-16T02:54:35.859Z,12.60
2019-05-16T02:55:41.029Z,12.60
2019-05-16T02:56:45.871Z,12.60
2019-05-16T02:57:50.947Z,12.60
2019-05-16T02:58:55.771Z,12.60
2019-05-16T03:00:01.633Z,12.60
2019-05-16T03:01:06.565Z,12.60
2019-05-16T03:02:11.587Z,12.60
2019-05-16T03:03:16.391Z,12.60
2019-05-16T03:04:21.427Z,12.60
2019-05-16T03:05:26.131Z,12.60
2019-05-16T03:06:32.069Z,12.60
2019-05-16T03:07:41.897Z,12.60
2019-05-16T03:08:43.653Z,12.60
2019-05-16T03:09:51.212Z,12.60
2019-05-16T03:10:54.912Z,12.60
2019-05-16T03:12:01.301Z,12.60
2019-05-16T03:13:05.892Z,12.50
2019-05-16T03:14:11.221Z,12.50
2019-05-16T03:15:15.846Z,12.50
2019-05-16T03:16:22.313Z,12.50
2019-05-16T03:17:26.996Z,12.50
2019-05-16T03:18:31.586Z,12.50
2019-05-16T03:19:37.524Z,12.50
2019-05-16T03:20:42.107Z,12.50
2019-05-16T03:21:46.505Z,12.50
2019-05-16T03:22:51.948Z,12.50
2019-05-16T03:23:56.541Z,12.50
2019-05-16T03:25:01.402Z,12.50
2019-05-16T03:26:05.913Z,12.40
2019-05-16T03:27:10.975Z,12.40
2019-05-16T03:28:15.544Z,12.50
2019-05-16T03:29:21.896Z,12.50
2019-05-16T03:30:26.235Z,12.40
2019-05-16T03:31:34.077Z,12.40
2019-05-16T03:32:36.886Z,12.50
2019-05-16T03:33:49.951Z,12.50
2019-05-16T03:34:47.672Z,12.40
2019-05-16T03:35:54.942Z,12.50
2019-05-16T03:37:03.380Z,12.50
2019-05-16T03:38:05.815Z,12.40
2019-05-16T03:39:10.755Z,12.40
2019-05-16T03:40:17.045Z,12.40
2019-05-16T03:41:21.738Z,12.40
2019-05-16T03:42:26.415Z,12.40
2019-05-16T03:43:31.107Z,12.40
2019-05-16T03:44:35.732Z,12.40
2019-05-16T03:45:41.702Z,12.30
2019-05-16T03:46:46.522Z,12.40
2019-05-16T03:47:51.336Z,12.40
2019-05-16T03:48:56.033Z,12.40
2019-05-16T03:50:00.875Z,12.40
2019-05-16T03:51:05.532Z,12.40
2019-05-16T03:52:11.359Z,12.40
2019-05-16T03:53:16.128Z,12.40
2019-05-16T03:54:21.173Z,12.40
2019-05-16T03:55:26.141Z,12.40
2019-05-16T03:56:30.817Z,12.40
2019-05-16T03:57:35.429Z,12.40
2019-05-16T03:58:41.462Z,12.40
2019-05-16T03:59:46.089Z,12.40
2019-05-16T04:00:53.310Z,12.40
2019-05-16T04:01:57.883Z,12.40
2019-05-16T04:03:02.311Z,12.30
2019-05-16T04:04:07.015Z,12.30
2019-05-16T04:05:11.628Z,12.30
2019-05-16T04:06:16.203Z,12.30
2019-05-16T04:07:21.478Z,12.30
2019-05-16T04:08:26.330Z,12.30
2019-05-16T04:09:31.571Z,12.30
2019-05-16T04:10:36.259Z,12.30
2019-05-16T04:11:42.568Z,12.30
2019-05-16T04:12:46.869Z,12.30
2019-05-16T04:13:51.300Z,12.30
2019-05-16T04:14:55.899Z,12.30
2019-05-16T04:16:01.252Z,12.30
2019-05-16T04:17:06.276Z,12.40
2019-05-16T04:18:11.332Z,12.30
2019-05-16T04:19:16.098Z,12.40
2019-05-16T04:20:21.564Z,12.40
2019-05-16T04:21:26.307Z,12.40
2019-05-16T04:22:31.791Z,12.40
2019-05-16T04:23:36.617Z,12.40
2019-05-16T04:24:41.766Z,12.40
2019-05-16T04:25:46.604Z,12.30
2019-05-16T04:26:51.846Z,12.40
2019-05-16T04:27:56.587Z,12.40
2019-05-16T04:29:01.080Z,12.40
2019-05-16T04:30:06.249Z,12.40
2019-05-16T04:31:11.160Z,12.40
2019-05-16T04:32:15.955Z,12.40
2019-05-16T04:33:21.920Z,12.40
2019-05-16T04:34:26.883Z,12.40
2019-05-16T04:35:31.793Z,12.40
2019-05-16T04:36:36.510Z,12.40
2019-05-16T04:37:42.129Z,12.40
2019-05-16T04:38:47.192Z,12.40
2019-05-16T04:39:51.618Z,12.40
2019-05-16T04:40:56.210Z,12.40
2019-05-16T04:42:01.559Z,12.30
2019-05-16T04:43:06.357Z,12.30
2019-05-16T04:44:11.564Z,12.30
2019-05-16T04:45:16.592Z,12.30
2019-05-16T04:46:21.698Z,12.30
2019-05-16T04:47:26.320Z,12.30
2019-05-16T04:48:31.244Z,12.30
2019-05-16T04:49:36.146Z,12.30
2019-05-16T04:50:41.905Z,12.30
2019-05-16T04:51:46.624Z,12.30
2019-05-16T04:52:51.902Z,12.30
2019-05-16T04:53:56.753Z,12.30
2019-05-16T04:55:01.173Z,12.40
2019-05-16T04:56:05.747Z,12.30
2019-05-16T04:57:11.828Z,12.30
2019-05-16T04:58:16.396Z,12.40
2019-05-16T04:59:20.978Z,12.40
2019-05-16T05:00:25.623Z,12.40
2019-05-16T05:01:30.742Z,12.50
2019-05-16T05:02:35.490Z,12.50
2019-05-16T05:03:40.963Z,12.40
2019-05-16T05:04:46.143Z,12.40
2019-05-16T05:05:51.681Z,12.50
2019-05-16T05:06:56.527Z,12.50
2019-05-16T05:08:01.595Z,12.50
2019-05-16T05:09:07.410Z,12.50
2019-05-16T05:10:11.856Z,12.50
2019-05-16T05:11:16.441Z,12.50
2019-05-16T05:12:21.084Z,12.60
2019-05-16T05:13:25.812Z,12.50
2019-05-16T05:14:30.799Z,12.40
2019-05-16T05:15:35.522Z,12.40
2019-05-16T05:16:41.324Z,12.40
2019-05-16T05:17:46.172Z,12.40
2019-05-16T05:18:51.527Z,12.40
2019-05-16T05:19:56.410Z,12.40
2019-05-16T05:21:01.159Z,12.40
2019-05-16T05:22:05.924Z,12.40
2019-05-16T05:23:10.325Z,12.40
2019-05-16T05:24:14.930Z,12.50
2019-05-16T05:25:20.428Z,12.50
2019-05-16T05:26:25.107Z,12.50
2019-05-16T05:27:30.334Z,12.50
2019-05-16T05:28:35.130Z,12.60
2019-05-16T05:29:39.897Z,12.60
2019-05-16T05:30:44.912Z,12.60
2019-05-16T05:31:55.146Z,12.60
2019-05-16T05:32:55.708Z,12.70
2019-05-16T05:34:01.340Z,12.70
2019-05-16T05:35:06.580Z,12.80
2019-05-16T05:36:12.409Z,12.80
2019-05-16T05:37:17.250Z,12.80
2019-05-16T05:38:21.867Z,12.90
2019-05-16T05:39:26.598Z,12.90
2019-05-16T05:40:31.025Z,12.90
2019-05-16T05:41:35.608Z,12.90
2019-05-16T05:42:40.184Z,12.90
2019-05-16T05:43:44.755Z,13.00
2019-05-16T05:44:50.864Z,13.00
2019-05-16T05:45:55.606Z,13.00
2019-05-16T05:47:00.595Z,13.00
2019-05-16T05:48:05.536Z,13.00
2019-05-16T05:49:10.674Z,13.00
2019-05-16T05:50:15.576Z,13.00
2019-05-16T05:51:20.738Z,13.00
2019-05-16T05:52:25.574Z,13.00
2019-05-16T05:53:30.290Z,13.00
2019-05-16T05:54:34.899Z,13.10
2019-05-16T05:55:40.512Z,13.10
2019-05-16T05:56:45.128Z,13.10
2019-05-16T05:57:50.717Z,13.10
2019-05-16T05:58:58.108Z,13.20
2019-05-16T06:00:01.460Z,13.20
2019-05-16T06:01:06.074Z,13.20
2019-05-16T06:02:11.321Z,13.10
2019-05-16T06:03:16.239Z,13.10
2019-05-16T06:04:20.660Z,13.00
2019-05-16T06:05:25.260Z,13.00
2019-05-16T06:06:30.387Z,12.90
2019-05-16T06:07:35.168Z,12.90
2019-05-16T06:08:40.880Z,13.00
2019-05-16T06:09:53.493Z,13.10
2019-05-16T06:10:51.723Z,13.10
2019-05-16T06:11:56.309Z,13.10
2019-05-16T06:13:00.731Z,13.00
2019-05-16T06:14:05.294Z,13.00
2019-05-16T06:15:12.630Z,13.00
2019-05-16T06:16:15.986Z,13.00
2019-05-16T06:17:20.395Z,13.00
2019-05-16T06:18:24.978Z,13.00
2019-05-16T06:19:29.854Z,12.90
2019-05-16T06:20:34.483Z,12.90
2019-05-16T06:21:44.723Z,13.00
2019-05-16T06:22:45.138Z,13.00
2019-05-16T06:23:50.847Z,13.00
2019-05-16T06:24:55.735Z,13.00
2019-05-16T06:26:00.573Z,13.00
2019-05-16T06:27:05.339Z,12.90
2019-05-16T06:28:10.576Z,12.80
2019-05-16T06:29:15.285Z,12.70
2019-05-16T06:30:21.441Z,12.80
2019-05-16T06:31:25.979Z,12.80
2019-05-16T06:32:30.540Z,12.90
2019-05-16T06:33:35.092Z,12.90
2019-05-16T06:34:40.435Z,12.90
2019-05-16T06:35:45.231Z,12.90
2019-05-16T06:36:50.868Z,12.90
2019-05-16T06:37:55.643Z,12.90
2019-05-16T06:39:00.255Z,13.00
2019-05-16T06:40:05.307Z,13.00
2019-05-16T06:41:10.686Z,13.00
2019-05-16T06:42:15.436Z,13.10
2019-05-16T06:43:20.423Z,13.10
2019-05-16T06:44:25.314Z,13.10
2019-05-16T06:45:31.972Z,13.10
2019-05-16T06:46:44.083Z,13.10
2019-05-16T06:47:42.381Z,13.10
2019-05-16T06:48:46.972Z,13.20
2019-05-16T06:49:51.357Z,13.30
2019-05-16T06:50:55.960Z,13.30
2019-05-16T06:52:00.382Z,13.40
2019-05-16T06:53:05.099Z,13.50
2019-05-16T06:54:10.141Z,13.60
2019-05-16T06:55:14.904Z,13.60
2019-05-16T06:56:22.287Z,13.60
2019-05-16T06:57:26.905Z,13.70
2019-05-16T06:58:44.648Z,13.70
2019-05-16T06:59:37.535Z,13.70
2019-05-16T07:00:41.942Z,13.60
2019-05-16T07:01:46.546Z,13.60
2019-05-16T07:02:50.985Z,13.60
2019-05-16T07:03:55.537Z,13.60
2019-05-16T07:05:02.756Z,13.60
2019-05-16T07:06:09.651Z,13.60
2019-05-16T07:07:13.432Z,13.70
2019-05-16T07:08:20.273Z,13.60
2019-05-16T07:09:24.103Z,13.60
2019-05-16T07:10:30.601Z,13.60
2019-05-16T07:11:34.735Z,13.50
2019-05-16T07:12:41.338Z,13.50
2019-05-16T07:13:45.392Z,13.50
2019-05-16T07:14:50.587Z,13.60
2019-05-16T07:15:55.075Z,13.60
2019-05-16T07:17:00.291Z,13.70
2019-05-16T07:18:04.855Z,13.80
2019-05-16T07:19:10.523Z,13.80
2019-05-16T07:20:15.160Z,13.80
2019-05-16T07:21:20.320Z,13.80
2019-05-16T07:22:24.940Z,13.90
2019-05-16T07:23:30.018Z,14.00
2019-05-16T07:24:34.588Z,14.00
2019-05-16T07:25:40.710Z,14.10
2019-05-16T07:26:45.170Z,14.10
2019-05-16T07:27:51.020Z,14.20
2019-05-16T07:28:55.839Z,14.30
2019-05-16T07:30:01.204Z,14.40
2019-05-16T07:31:15.015Z,14.50
2019-05-16T07:32:12.693Z,14.60
2019-05-16T07:33:17.140Z,14.70
2019-05-16T07:34:21.703Z,14.80
2019-05-16T07:35:26.195Z,14.90
2019-05-16T07:36:31.601Z,15.00
2019-05-16T07:37:36.157Z,14.90
2019-05-16T07:38:40.772Z,14.90
2019-05-16T07:39:45.179Z,14.80
2019-05-16T07:40:51.305Z,14.90
2019-05-16T07:41:55.963Z,14.90
2019-05-16T07:43:00.576Z,15.00
2019-05-16T07:44:04.980Z,15.00
2019-05-16T07:45:11.107Z,15.00
2019-05-16T07:46:15.810Z,15.10
2019-05-16T07:47:20.497Z,15.20
2019-05-16T07:48:24.908Z,15.20
2019-05-16T07:49:30.471Z,15.10
2019-05-16T07:50:35.003Z,15.10
2019-05-16T07:51:40.234Z,15.10
2019-05-16T07:52:44.717Z,15.20
2019-05-16T07:53:50.548Z,15.30
2019-05-16T07:54:55.194Z,15.30
2019-05-16T07:56:00.215Z,15.40
2019-05-16T07:57:16.180Z,15.50
2019-05-16T07:58:13.282Z,15.50
2019-05-16T07:59:16.942Z,15.60
2019-05-16T08:00:22.108Z,15.70
2019-05-16T08:01:27.611Z,15.80
2019-05-16T08:02:32.187Z,15.90
2019-05-16T08:03:36.669Z,16.00
2019-05-16T08:04:41.311Z,16.10
2019-05-16T08:05:45.716Z,16.20
2019-05-16T08:06:50.415Z,16.20
2019-05-16T08:07:54.844Z,16.20
2019-05-16T08:09:00.213Z,16.30
2019-05-16T08:10:05.415Z,16.30
2019-05-16T08:11:12.173Z,16.40
2019-05-16T08:12:16.116Z,16.40
2019-05-16T08:14:26.839Z,16.10
2019-05-16T08:15:31.507Z,16.20
2019-05-16T08:16:36.186Z,16.30
2019-05-16T08:17:44.409Z,16.30
2019-05-16T08:18:46.855Z,16.40
2019-05-16T08:19:51.452Z,16.40
2019-05-16T08:20:55.828Z,16.30
2019-05-16T08:22:01.248Z,16.10
2019-05-16T08:23:05.879Z,15.70
2019-05-16T08:25:20.408Z,15.40
2019-05-16T08:26:25.145Z,15.40
2019-05-16T08:27:31.386Z,15.50
2019-05-16T08:28:35.796Z,15.60
2019-05-16T08:29:40.553Z,15.70
2019-05-16T08:30:45.199Z,15.90
2019-05-16T08:31:52.750Z,16.00
2019-05-16T08:32:55.836Z,16.10
2019-05-16T08:34:00.953Z,16.30
2019-05-16T08:35:06.243Z,16.30
2019-05-16T08:36:12.021Z,16.30
2019-05-16T08:37:34.032Z,16.30
2019-05-16T08:38:22.919Z,16.30
2019-05-16T08:39:27.531Z,16.30
2019-05-16T08:40:32.276Z,16.20
2019-05-16T08:41:36.866Z,16.20
2019-05-16T08:42:41.928Z,16.00
2019-05-16T08:43:46.575Z,16.00
2019-05-16T08:44:51.710Z,16.10
2019-05-16T08:45:56.575Z,16.10
2019-05-16T08:48:07.219Z,16.30
2019-05-16T08:49:12.515Z,16.40
2019-05-16T08:50:05.719Z,16.30
2019-05-16T08:50:06.463Z,15.50
2019-05-16T08:50:21.407Z,16.40
2019-05-16T08:51:23.472Z,16.50
2019-05-16T08:52:31.230Z,16.60
2019-05-16T08:53:34.170Z,16.80
2019-05-16T08:54:42.963Z,17.00
2019-05-16T08:55:44.833Z,17.20
2019-05-16T08:57:55.602Z,17.90
2019-05-16T08:59:02.382Z,18.40
2019-05-16T09:00:06.947Z,18.70
2019-05-16T09:01:14.818Z,19.00
2019-05-16T09:02:17.606Z,19.30
2019-05-16T09:03:22.614Z,19.50
2019-05-16T09:04:27.263Z,19.70
2019-05-16T09:05:32.848Z,19.80
2019-05-16T09:06:37.240Z,19.80
2019-05-16T09:07:41.927Z,19.50
2019-05-16T09:08:46.328Z,19.30
2019-05-16T09:09:51.881Z,19.30
2019-05-16T09:10:21.441Z,17.50
2019-05-16T09:10:30.559Z,16.20
2019-05-16T09:11:02.064Z,19.00
2019-05-16T09:12:03.110Z,18.90
2019-05-16T09:13:07.544Z,18.70
2019-05-16T09:14:12.114Z,18.60
2019-05-16T09:15:17.187Z,18.50
2019-05-16T09:16:21.834Z,18.40
2019-05-16T09:17:27.710Z,18.20
2019-05-16T09:18:44.780Z,18.20
2019-05-16T09:19:38.506Z,18.20
2019-05-16T09:20:43.123Z,18.30
2019-05-16T09:21:47.682Z,18.40
2019-05-16T09:22:52.267Z,18.50
2019-05-16T09:23:57.808Z,18.30
2019-05-16T09:25:02.935Z,18.10
2019-05-16T09:26:07.673Z,18.00
2019-05-16T09:27:13.178Z,17.80
2019-05-16T09:28:17.858Z,17.60
2019-05-16T09:29:22.594Z,17.60
2019-05-16T09:30:27.583Z,17.80
2019-05-16T09:31:32.451Z,17.90
2019-05-16T09:32:37.174Z,18.00
2019-05-16T09:33:41.926Z,18.10
2019-05-16T09:34:47.925Z,18.40
2019-05-16T09:35:52.669Z,18.50
2019-05-16T09:37:00.593Z,18.80
2019-05-16T09:38:03.320Z,19.30
2019-05-16T09:39:08.919Z,19.90
2019-05-16T09:40:13.571Z,19.70
2019-05-16T09:41:17.974Z,19.60
2019-05-16T09:42:22.608Z,19.60
2019-05-16T09:43:28.077Z,19.60
2019-05-16T09:44:33.008Z,19.40
2019-05-16T09:45:38.094Z,19.40
2019-05-16T09:46:42.826Z,19.30
2019-05-16T09:47:51.064Z,19.00
2019-05-16T09:49:13.075Z,18.90
2019-05-16T09:49:59.700Z,18.80
2019-05-16T09:51:06.507Z,18.70
2019-05-16T09:52:10.399Z,18.60
2019-05-16T09:53:17.105Z,18.60
2019-05-16T09:54:21.135Z,18.40
2019-05-16T09:55:26.887Z,18.30
2019-05-16T09:56:31.286Z,18.30
2019-05-16T09:57:37.731Z,18.30
2019-05-16T09:58:41.875Z,18.30
2019-05-16T09:59:46.607Z,18.20
2019-05-16T10:00:51.004Z,18.20
2019-05-16T10:01:57.169Z,18.10
2019-05-16T10:03:01.691Z,17.90
2019-05-16T10:04:06.795Z,17.70
2019-05-16T10:05:13.517Z,17.50
2019-05-16T10:06:20.594Z,17.50
2019-05-16T10:07:28.131Z,17.50
2019-05-16T10:08:34.040Z,17.50
2019-05-16T10:09:44.691Z,17.30
2019-05-16T10:10:43.535Z,17.10
2019-05-16T10:11:49.419Z,17.10
2019-05-16T10:12:54.232Z,17.00
2019-05-16T10:13:58.619Z,16.90
2019-05-16T10:15:07.253Z,16.70
2019-05-16T10:16:09.295Z,16.70
2019-05-16T10:17:13.887Z,16.80
2019-05-16T10:18:20.376Z,16.90
2019-05-16T10:19:27.371Z,16.90
2019-05-16T10:20:31.050Z,16.80
2019-05-16T10:21:37.206Z,16.70
2019-05-16T10:22:42.514Z,16.70
2019-05-16T10:23:47.130Z,16.80
2019-05-16T10:24:51.591Z,16.90
2019-05-16T10:25:56.827Z,16.90
2019-05-16T10:27:06.456Z,17.00
2019-05-16T10:28:11.275Z,17.10
2019-05-16T10:29:18.364Z,17.10
2019-05-16T10:30:21.943Z,17.10
2019-05-16T10:31:40.998Z,17.20
2019-05-16T10:32:32.615Z,17.20
2019-05-16T10:33:39.088Z,17.10
2019-05-16T10:34:43.227Z,17.00
2019-05-16T10:35:48.109Z,17.00
2019-05-16T10:36:52.867Z,16.80
2019-05-16T10:37:57.692Z,16.60
2019-05-16T10:39:02.273Z,16.50
2019-05-16T10:40:07.543Z,16.50
2019-05-16T10:41:12.168Z,16.40
2019-05-16T10:42:27.878Z,16.40
2019-05-16T10:43:22.828Z,16.30
2019-05-16T10:44:28.181Z,16.20
2019-05-16T10:45:33.116Z,16.10
2019-05-16T10:46:37.810Z,16.10
2019-05-16T10:47:42.539Z,16.10
2019-05-16T10:48:47.118Z,16.20
2019-05-16T10:49:51.773Z,16.30
2019-05-16T10:50:57.706Z,16.30
2019-05-16T10:52:02.579Z,16.30
2019-05-16T10:53:23.795Z,16.30
2019-05-16T10:54:14.253Z,16.30
2019-05-16T10:55:19.386Z,16.40
2019-05-16T10:56:24.110Z,16.40
2019-05-16T10:57:29.954Z,16.40
2019-05-16T10:58:37.998Z,16.40
2019-05-16T11:00:06.485Z,16.40
2019-05-16T11:01:07.814Z,16.30
2019-05-16T11:01:53.031Z,16.20
2019-05-16T11:02:58.941Z,16.10
2019-05-16T11:04:04.226Z,16.10
2019-05-16T11:05:25.185Z,16.10
2019-05-16T11:06:25.314Z,16.10
2019-05-16T11:07:21.136Z,16.10
2019-05-16T11:08:28.564Z,16.00
2019-05-16T11:09:34.362Z,16.00
2019-05-16T11:10:38.792Z,15.90
2019-05-16T11:11:43.366Z,15.90
2019-05-16T11:12:54.856Z,16.00
2019-05-16T11:13:54.011Z,16.00
2019-05-16T11:14:58.525Z,16.00
2019-05-16T11:16:03.118Z,16.10
2019-05-16T11:17:13.239Z,16.20
2019-05-16T11:18:13.775Z,16.30
2019-05-16T11:19:24.225Z,16.30
2019-05-16T11:20:26.876Z,16.20
2019-05-16T11:21:30.989Z,16.20
2019-05-16T11:22:37.084Z,16.10
2019-05-16T11:23:41.723Z,16.00
2019-05-16T11:24:47.151Z,16.00
2019-05-16T11:25:55.061Z,16.00
2019-05-16T11:26:57.980Z,16.00
2019-05-16T11:28:02.380Z,16.10
2019-05-16T11:29:07.586Z,16.20
2019-05-16T11:30:12.271Z,16.30
2019-05-16T11:31:17.668Z,16.30
2019-05-16T11:32:22.278Z,16.30
2019-05-16T11:33:28.100Z,16.40
2019-05-16T11:34:32.863Z,16.30
2019-05-16T11:35:38.070Z,16.30
2019-05-16T11:36:42.767Z,16.30
2019-05-16T11:37:47.430Z,16.40
2019-05-16T11:38:51.792Z,16.40
2019-05-16T11:39:57.158Z,16.40
2019-05-16T11:41:01.714Z,16.40
2019-05-16T11:42:07.942Z,16.40
2019-05-16T11:43:18.276Z,16.50
2019-05-16T11:44:22.465Z,16.60
2019-05-16T11:45:27.264Z,16.60
2019-05-16T11:46:31.952Z,16.70
2019-05-16T11:47:36.869Z,16.80
2019-05-16T11:48:41.474Z,16.80
2019-05-16T11:49:47.626Z,16.90
2019-05-16T11:50:52.155Z,17.00
2019-05-16T11:51:57.905Z,17.00
2019-05-16T11:53:02.628Z,17.10
2019-05-16T11:54:07.144Z,17.30
2019-05-16T11:55:11.741Z,17.40
2019-05-16T11:56:16.130Z,17.50
2019-05-16T11:57:20.722Z,17.60
2019-05-16T11:58:26.670Z,17.80
2019-05-16T11:59:31.345Z,17.90
2019-05-16T12:00:37.296Z,18.00
2019-05-16T12:01:42.044Z,18.20
2019-05-16T12:02:47.751Z,18.30
2019-05-16T12:03:52.575Z,18.50
2019-05-16T12:04:57.849Z,18.70
2019-05-16T12:06:02.703Z,18.80
2019-05-16T12:07:10.212Z,18.90
2019-05-16T12:08:17.215Z,19.00
2019-05-16T12:09:20.880Z,19.00
2019-05-16T12:10:27.037Z,18.90
2019-05-16T12:11:31.592Z,18.90
2019-05-16T12:12:36.978Z,18.90
2019-05-16T12:13:41.624Z,18.80
2019-05-16T12:14:46.203Z,18.80
2019-05-16T12:15:50.607Z,18.70
2019-05-16T12:16:56.946Z,18.70
2019-05-16T12:18:05.035Z,18.80
2019-05-16T12:19:07.730Z,18.90
2019-05-16T12:20:12.379Z,18.90
2019-05-16T12:21:17.345Z,18.90
2019-05-16T12:22:21.780Z,18.90
2019-05-16T12:23:27.581Z,18.80
2019-05-16T12:24:37.508Z,18.70
2019-05-16T12:25:38.372Z,18.70
2019-05-16T12:26:42.778Z,18.60
2019-05-16T12:27:48.055Z,18.50
2019-05-16T12:28:53.058Z,18.40
2019-05-16T12:29:59.006Z,18.30
2019-05-16T12:31:07.113Z,18.30
2019-05-16T12:32:12.264Z,18.30
2019-05-16T12:33:18.696Z,18.20
2019-05-16T12:34:23.091Z,18.00
2019-05-16T12:35:27.807Z,17.80
2019-05-16T12:36:32.431Z,17.70
2019-05-16T12:37:37.366Z,17.60
2019-05-16T12:38:42.214Z,17.50
2019-05-16T12:39:47.148Z,17.50
2019-05-16T12:40:51.855Z,17.40
2019-05-16T12:41:59.369Z,17.30
2019-05-16T12:43:02.844Z,17.20
2019-05-16T12:44:07.675Z,17.00
2019-05-16T12:45:13.511Z,16.90
2019-05-16T12:46:17.911Z,16.80
2019-05-16T12:47:22.490Z,16.70
2019-05-16T12:48:26.970Z,16.70
2019-05-16T12:49:32.306Z,16.70
2019-05-16T12:50:38.892Z,16.70
2019-05-16T12:51:42.951Z,16.60
2019-05-16T12:52:47.537Z,16.60
2019-05-16T12:53:52.340Z,16.50
2019-05-16T12:54:57.131Z,16.40
2019-05-16T12:56:02.044Z,16.40
2019-05-16T12:57:06.485Z,16.30
2019-05-16T12:58:12.434Z,16.30
2019-05-16T12:59:20.405Z,16.40
2019-05-16T13:00:23.955Z,16.30
2019-05-16T13:01:34.380Z,16.30
2019-05-16T13:02:37.614Z,16.40
2019-05-16T13:03:40.731Z,16.40
2019-05-16T13:04:47.098Z,16.50
2019-05-16T13:05:51.622Z,16.50
2019-05-16T13:06:57.917Z,16.40
2019-05-16T13:08:02.463Z,16.50
2019-05-16T13:09:08.171Z,16.50
2019-05-16T13:10:14.170Z,16.40
2019-05-16T13:11:18.760Z,16.40
2019-05-16T13:12:23.314Z,16.40
2019-05-16T13:13:27.994Z,16.40
2019-05-16T13:14:32.569Z,16.40
2019-05-16T13:15:38.230Z,16.40
2019-05-16T13:16:43.270Z,16.50
2019-05-16T13:17:47.881Z,16.50
2019-05-16T13:18:52.318Z,16.50
2019-05-16T13:19:57.552Z,16.60
2019-05-16T13:21:03.127Z,16.60
2019-05-16T13:22:07.696Z,16.60
2019-05-16T13:23:18.044Z,16.50
2019-05-16T13:24:18.950Z,16.40
2019-05-16T13:25:23.492Z,16.30
2019-05-16T13:26:28.128Z,16.20
2019-05-16T13:27:32.528Z,16.20
2019-05-16T13:28:37.846Z,16.10
2019-05-16T13:29:42.575Z,16.10
2019-05-16T13:30:47.356Z,16.00
2019-05-16T13:31:51.718Z,16.10
2019-05-16T13:32:56.629Z,16.10
2019-05-16T13:34:01.042Z,16.20
2019-05-16T13:35:07.729Z,16.20
2019-05-16T13:36:12.091Z,16.10
2019-05-16T13:37:17.994Z,16.10
2019-05-16T13:38:22.593Z,16.10
2019-05-16T13:39:27.665Z,16.00
2019-05-16T13:40:32.188Z,15.90
2019-05-16T13:41:37.936Z,15.90
2019-05-16T13:42:42.591Z,16.00
2019-05-16T13:43:47.204Z,16.00
2019-05-16T13:44:51.628Z,16.00
2019-05-16T13:45:57.576Z,16.00
2019-05-16T13:47:02.216Z,16.00
2019-05-16T13:48:08.122Z,16.10
2019-05-16T13:49:12.855Z,16.10
2019-05-16T13:50:17.477Z,16.20
2019-05-16T13:51:21.878Z,16.30
2019-05-16T13:52:28.210Z,16.30
2019-05-16T13:53:32.594Z,16.40
2019-05-16T13:54:37.193Z,16.50
2019-05-16T13:55:41.630Z,16.60
2019-05-16T13:56:48.414Z,16.60
2019-05-16T13:57:52.480Z,16.70
2019-05-16T13:58:57.129Z,16.70